createdAt,value
2018-02-21T00:01:20.888Z,96.33
2018-02-21T00:03:53.981Z,104.20
2018-02-21T00:06:23.149Z,74.83
2018-02-21T00:08:52.341Z,89.30
2018-02-21T00:11:21.549Z,96.57
2018-02-21T00:13:50.688Z,74.77
2018-02-21T00:16:19.881Z,93.43
2018-02-21T00:18:49.039Z,94.75
2018-02-21T00:21:18.199Z,90.97
2018-02-21T00:23:47.384Z,74.53
2018-02-21T00:26:16.555Z,83.53
2018-02-21T00:28:45.724Z,97.68
2018-02-21T00:31:14.905Z,91.93
2018-02-21T00:33:44.068Z,97.32
2018-02-21T00:36:13.253Z,99.67
2018-02-21T00:38:42.436Z,102.70
2018-02-21T00:41:11.591Z,105.43
2018-02-21T00:43:40.748Z,79.93
2018-02-21T00:46:19.653Z,92.20
2018-02-21T00:48:48.810Z,91.35
2018-02-21T00:51:18.023Z,68.83
2018-02-21T00:53:47.259Z,79.28
2018-02-21T00:56:16.404Z,75.93
2018-02-21T00:58:45.565Z,70.13
2018-02-21T01:01:14.707Z,79.70
2018-02-21T01:03:43.887Z,83.23
2018-02-21T01:06:13.052Z,89.43
2018-02-21T01:08:42.222Z,73.50
2018-02-21T01:11:11.424Z,84.15
2018-02-21T01:13:40.588Z,87.55
2018-02-21T01:16:09.750Z,70.70
2018-02-21T01:18:38.936Z,86.55
2018-02-21T01:21:08.128Z,88.18
2018-02-21T01:23:37.575Z,78.77
2018-02-21T01:26:06.734Z,87.53
2018-02-21T01:28:35.962Z,88.07
2018-02-21T01:31:05.112Z,75.90
2018-02-21T01:33:34.415Z,88.12
2018-02-21T01:36:03.587Z,92.65
2018-02-21T01:38:32.752Z,78.23
2018-02-21T01:41:01.955Z,94.95
2018-02-21T01:43:31.182Z,99.97
2018-02-21T01:46:00.356Z,77.33
2018-02-21T01:48:29.568Z,99.53
2018-02-21T01:50:58.743Z,103.72
2018-02-21T01:53:27.968Z,105.20
2018-02-21T01:55:57.136Z,95.67
2018-02-21T02:01:03.964Z,103.70
2018-02-21T02:03:33.166Z,113.70
2018-02-21T02:06:02.421Z,86.80
2018-02-21T02:08:31.605Z,110.37
2018-02-21T02:11:00.795Z,116.22
2018-02-21T02:13:29.974Z,99.70
2018-02-21T02:15:59.184Z,110.20
2018-02-21T02:18:28.371Z,118.07
2018-02-21T02:20:57.536Z,98.27
2018-02-21T02:26:03.371Z,111.05
2018-02-21T02:28:32.543Z,104.10
2018-02-21T02:31:01.712Z,111.12
2018-02-21T02:33:30.850Z,112.18
2018-02-21T02:36:00.020Z,95.90
2018-02-21T02:41:13.846Z,112.93
2018-02-21T02:43:43.021Z,86.33
2018-02-21T02:46:12.219Z,103.70
2018-02-21T02:48:41.449Z,116.55
2018-02-21T02:51:11.642Z,118.10
2018-02-21T02:53:40.803Z,93.70
2018-02-21T02:56:09.978Z,108.65
2018-02-21T02:58:39.146Z,106.37
2018-02-21T03:01:08.351Z,106.85
2018-02-21T03:03:37.536Z,83.70
2018-02-21T03:06:06.687Z,100.78
2018-02-21T03:08:35.855Z,110.53
2018-02-21T03:11:05.035Z,110.65
2018-02-21T03:16:11.892Z,108.30
2018-02-21T03:18:41.063Z,115.35
2018-02-21T03:21:11.167Z,112.07
2018-02-21T03:23:40.324Z,91.23
2018-02-21T03:26:09.604Z,116.60
2018-02-21T03:28:38.771Z,119.18
2018-02-21T03:31:07.916Z,119.72
2018-02-21T03:33:37.079Z,93.70
2018-02-21T03:36:06.344Z,116.78
2018-02-21T03:43:45.981Z,122.28
2018-02-21T03:46:15.171Z,97.40
2018-02-21T03:48:44.338Z,118.03
2018-02-21T03:53:49.737Z,128.65
2018-02-21T03:56:23.805Z,110.50
2018-02-21T03:58:52.983Z,115.82
2018-02-21T04:01:22.151Z,114.47
2018-02-21T04:03:51.300Z,117.10
2018-02-21T04:06:20.467Z,101.90
2018-02-21T04:08:49.663Z,117.00
2018-02-21T04:11:18.835Z,92.00
2018-02-21T04:13:48.018Z,117.22
2018-02-21T04:16:17.180Z,125.80
2018-02-21T04:18:46.343Z,96.67
2018-02-21T04:21:15.491Z,118.47
2018-02-21T04:23:44.668Z,122.37
2018-02-21T04:26:13.968Z,86.97
2018-02-21T04:28:43.201Z,117.65
2018-02-21T04:31:12.389Z,116.05
2018-02-21T04:33:41.532Z,115.65
2018-02-21T04:36:10.699Z,123.75
2018-02-21T04:38:41.839Z,92.60
2018-02-21T04:41:11.042Z,109.40
2018-02-21T04:43:41.127Z,114.27
2018-02-21T04:46:10.302Z,90.87
2018-02-21T04:48:39.471Z,106.97
2018-02-21T04:51:08.662Z,121.67
2018-02-21T04:53:37.874Z,119.90
2018-02-21T04:56:11.379Z,116.82
2018-02-21T05:01:34.980Z,112.10
2018-02-21T05:04:04.200Z,106.35
2018-02-21T05:06:33.505Z,83.63
2018-02-21T05:09:02.720Z,107.55
2018-02-21T05:11:31.937Z,115.70
2018-02-21T05:14:01.126Z,96.77
2018-02-21T05:19:05.641Z,102.65
2018-02-21T05:21:34.823Z,89.00
2018-02-21T05:24:04.078Z,106.47
2018-02-21T05:26:34.222Z,105.97
2018-02-21T05:29:03.474Z,112.25
2018-02-21T05:31:32.610Z,87.50
2018-02-21T05:34:01.786Z,103.47
2018-02-21T05:36:30.978Z,112.07
2018-02-21T05:39:00.178Z,78.47
2018-02-21T05:41:29.587Z,101.05
2018-02-21T05:43:58.730Z,104.05
2018-02-21T05:46:27.888Z,79.37
2018-02-21T05:48:57.092Z,101.32
2018-02-21T05:51:26.260Z,103.43
2018-02-21T05:53:55.420Z,79.33
2018-02-21T05:56:24.571Z,101.05
2018-02-21T05:58:53.727Z,82.30
2018-02-21T06:01:22.875Z,93.97
2018-02-21T06:03:52.055Z,100.30
2018-02-21T06:06:21.244Z,95.10
2018-02-21T06:08:50.404Z,73.10
2018-02-21T06:11:19.670Z,88.78
2018-02-21T06:13:48.785Z,92.18
2018-02-21T06:16:17.955Z,79.20
2018-02-21T06:18:47.180Z,91.45
2018-02-21T06:21:16.355Z,98.60
2018-02-21T06:23:52.942Z,102.12
2018-02-21T06:26:22.129Z,93.63
2018-02-21T06:28:51.339Z,98.00
2018-02-21T06:31:20.488Z,91.70
2018-02-21T06:33:49.796Z,70.10
2018-02-21T06:36:19.012Z,95.97
2018-02-21T06:41:23.519Z,103.20
2018-02-21T06:43:52.674Z,88.30
2018-02-21T06:46:21.854Z,93.60
2018-02-21T06:48:51.118Z,93.90
2018-02-21T06:51:20.292Z,94.35
2018-02-21T06:56:24.641Z,94.65
2018-02-21T06:58:53.883Z,75.63
2018-02-21T07:01:23.027Z,91.68
2018-02-21T07:03:52.188Z,82.23
2018-02-21T07:06:26.533Z,90.10
2018-02-21T07:08:55.783Z,80.82
2018-02-21T07:11:24.940Z,86.93
2018-02-21T07:13:54.115Z,85.03
2018-02-21T07:16:23.269Z,93.07
2018-02-21T07:18:52.473Z,75.90
2018-02-21T07:21:21.684Z,82.45
2018-02-21T07:23:50.872Z,82.25
2018-02-21T07:26:20.070Z,82.67
2018-02-21T07:28:49.280Z,87.28
2018-02-21T07:33:53.623Z,84.30
2018-02-21T07:36:22.816Z,70.33
2018-02-21T07:38:52.023Z,72.30
2018-02-21T07:41:21.207Z,72.70
2018-02-21T07:43:50.607Z,63.40
2018-02-21T07:46:19.811Z,74.18
2018-02-21T07:48:49.039Z,73.30
2018-02-21T07:51:18.204Z,66.80
2018-02-21T07:53:47.506Z,74.80
2018-02-21T07:56:16.672Z,80.05
2018-02-21T07:58:45.843Z,67.00
2018-02-21T08:01:14.995Z,74.00
2018-02-21T08:03:44.155Z,67.27
2018-02-21T08:06:14.163Z,76.60
2018-02-21T08:08:43.361Z,75.32
2018-02-21T08:11:12.554Z,66.07
2018-02-21T08:13:41.763Z,76.28
2018-02-21T08:16:10.935Z,69.07
2018-02-21T08:18:40.092Z,69.35
2018-02-21T08:21:09.275Z,65.27
2018-02-21T08:23:38.486Z,69.55
2018-02-21T08:26:07.684Z,61.53
2018-02-21T08:28:36.922Z,70.30
2018-02-21T08:31:16.274Z,65.27
2018-02-21T08:33:45.504Z,73.50
2018-02-21T08:36:14.645Z,67.87
2018-02-21T08:38:44.488Z,70.05
2018-02-21T08:41:13.731Z,68.87
2018-02-21T08:43:42.871Z,71.40
2018-02-21T08:46:12.040Z,68.60
2018-02-21T08:48:41.295Z,65.93
2018-02-21T08:51:10.467Z,67.23
2018-02-21T08:53:39.602Z,66.68
2018-02-21T08:56:08.798Z,69.37
2018-02-21T08:58:38.740Z,70.43
2018-02-21T09:01:07.894Z,64.90
2018-02-21T09:03:37.120Z,58.33
2018-02-21T09:06:06.292Z,62.92
2018-02-21T09:08:35.458Z,64.97
2018-02-21T09:11:04.595Z,64.43
2018-02-21T09:13:33.759Z,62.83
2018-02-21T09:16:02.955Z,59.33
2018-02-21T09:18:32.168Z,71.65
2018-02-21T09:21:01.305Z,61.83
2018-02-21T09:23:30.465Z,59.77
2018-02-21T09:25:59.610Z,69.05
2018-02-21T09:28:28.763Z,63.80
2018-02-21T09:30:57.896Z,57.90
2018-02-21T09:36:02.231Z,72.75
2018-02-21T09:38:31.420Z,59.50
2018-02-21T09:41:00.614Z,67.07
2018-02-21T09:43:29.788Z,63.57
2018-02-21T09:45:59.180Z,63.67
2018-02-21T09:48:28.672Z,63.60
2018-02-21T09:50:58.074Z,74.75
2018-02-21T09:53:29.502Z,60.87
2018-02-21T09:55:58.666Z,66.35
2018-02-21T09:58:27.814Z,65.50
2018-02-21T10:00:57.908Z,60.70
2018-02-21T10:03:27.095Z,60.43
2018-02-21T10:05:57.385Z,60.60
2018-02-21T10:08:26.613Z,61.77
2018-02-21T10:10:57.006Z,66.32
2018-02-21T10:13:26.168Z,65.20
2018-02-21T10:16:06.279Z,57.73
2018-02-21T10:18:35.530Z,61.20
2018-02-21T10:21:04.679Z,59.50
2018-02-21T10:23:33.827Z,54.77
2018-02-21T10:26:03.016Z,54.87
2018-02-21T10:28:32.168Z,58.75
2018-02-21T10:31:01.322Z,53.40
2018-02-21T10:33:30.506Z,58.90
2018-02-21T10:35:59.750Z,55.83
2018-02-21T10:38:29.893Z,59.63
2018-02-21T10:40:59.055Z,56.00
2018-02-21T10:43:29.644Z,58.33
2018-02-21T10:45:58.783Z,54.70
2018-02-21T10:48:30.149Z,55.77
2018-02-21T10:50:59.345Z,54.43
2018-02-21T10:53:29.668Z,56.20
2018-02-21T10:55:58.795Z,51.87
2018-02-21T10:58:32.891Z,54.97
2018-02-21T11:01:07.386Z,57.57
2018-02-21T11:06:11.789Z,59.60
2018-02-21T11:08:41.031Z,53.57
2018-02-21T11:11:10.192Z,54.70
2018-02-21T11:13:39.348Z,47.97
2018-02-21T11:16:08.558Z,54.50
2018-02-21T11:18:37.711Z,55.10
2018-02-21T11:21:06.891Z,55.80
2018-02-21T11:23:36.150Z,48.80
2018-02-21T11:26:05.284Z,51.13
2018-02-21T11:31:09.634Z,55.12
2018-02-21T11:33:38.848Z,54.22
2018-02-21T11:36:07.978Z,57.03
2018-02-21T11:38:37.111Z,52.90
2018-02-21T11:41:06.779Z,53.43
2018-02-21T11:43:35.919Z,49.70
2018-02-21T11:46:05.135Z,50.92
2018-02-21T11:51:09.847Z,50.63
2018-02-21T11:53:39.000Z,46.23
2018-02-21T11:56:08.132Z,46.47
2018-02-21T11:58:37.286Z,45.20
2018-02-21T12:01:08.496Z,45.23
2018-02-21T12:03:38.451Z,44.17
2018-02-21T12:06:08.098Z,44.07
2018-02-21T12:08:37.263Z,48.90
2018-02-21T12:11:06.431Z,44.90
2018-02-21T12:13:35.567Z,47.60
2018-02-21T12:16:04.763Z,44.73
2018-02-21T12:21:09.126Z,47.63
2018-02-21T12:23:38.335Z,48.30
2018-02-21T12:26:07.508Z,43.30
2018-02-21T12:28:36.656Z,46.92
2018-02-21T12:31:05.868Z,48.30
2018-02-21T12:33:35.032Z,51.03
2018-02-21T12:36:04.181Z,52.78
2018-02-21T12:38:33.335Z,52.40
2018-02-21T12:41:07.907Z,49.10
2018-02-21T12:43:48.169Z,49.43
2018-02-21T12:46:17.343Z,57.00
2018-02-21T12:48:46.524Z,48.40
2018-02-21T12:51:15.695Z,48.67
2018-02-21T12:56:20.091Z,50.13
2018-02-21T12:58:49.218Z,46.30
2018-02-21T13:01:18.387Z,47.35
2018-02-21T13:03:47.519Z,47.70
2018-02-21T13:06:16.690Z,48.27
2018-02-21T13:08:45.851Z,49.97
2018-02-21T13:11:14.999Z,49.78
2018-02-21T13:13:44.165Z,53.08
2018-02-21T13:16:13.311Z,49.00
2018-02-21T13:18:42.467Z,51.00
2018-02-21T13:21:15.419Z,55.67
2018-02-21T13:23:44.582Z,57.43
2018-02-21T13:26:13.728Z,58.03
2018-02-21T13:31:18.118Z,65.13
2018-02-21T13:33:47.292Z,62.70
2018-02-21T13:36:16.450Z,61.25
2018-02-21T13:38:45.601Z,56.80
2018-02-21T13:41:14.728Z,63.83
2018-02-21T13:43:43.886Z,70.63
2018-02-21T13:46:19.837Z,64.03
2018-02-21T13:48:49.005Z,59.43
2018-02-21T13:51:18.180Z,57.27
2018-02-21T13:53:47.414Z,58.57
2018-02-21T13:56:16.680Z,54.40
2018-02-21T13:58:45.997Z,49.93
2018-02-21T14:01:15.168Z,52.17
2018-02-21T14:03:44.362Z,49.17
2018-02-21T14:06:13.527Z,52.20
2018-02-21T14:08:42.697Z,51.40
2018-02-21T14:11:11.858Z,50.13
2018-02-21T14:13:41.072Z,53.67
2018-02-21T14:16:10.295Z,51.67
2018-02-21T14:18:39.547Z,54.50
2018-02-21T14:21:08.715Z,52.90
2018-02-21T14:26:13.172Z,55.22
2018-02-21T14:28:52.452Z,51.83
2018-02-21T14:31:21.619Z,51.77
2018-02-21T14:33:50.924Z,52.83
2018-02-21T14:36:20.148Z,53.50
2018-02-21T14:38:49.425Z,50.03
2018-02-21T14:41:18.551Z,55.87
2018-02-21T14:43:47.707Z,51.40
2018-02-21T14:48:52.170Z,57.72
2018-02-21T14:51:21.319Z,57.53
2018-02-21T14:53:55.355Z,57.57
2018-02-21T14:56:29.525Z,53.57
2018-02-21T14:59:03.386Z,57.33
2018-02-21T15:04:13.067Z,61.85
2018-02-21T15:06:42.221Z,58.57
2018-02-21T15:11:46.576Z,64.93
2018-02-21T15:14:15.727Z,60.90
2018-02-21T15:16:44.881Z,60.90
2018-02-21T15:19:14.038Z,58.57
2018-02-21T15:21:43.214Z,63.73
2018-02-21T15:24:12.385Z,56.87
2018-02-21T15:26:41.566Z,68.00
2018-02-21T15:29:10.726Z,64.30
2018-02-21T15:31:39.896Z,63.00
2018-02-21T15:36:45.287Z,64.57
2018-02-21T15:39:14.448Z,62.40
2018-02-21T15:44:18.785Z,74.68
2018-02-21T15:49:23.120Z,71.07
2018-02-21T15:51:52.288Z,65.50
2018-02-21T15:54:21.448Z,71.90
2018-02-21T15:56:50.599Z,72.93
2018-02-21T15:59:19.772Z,69.45
2018-02-21T16:01:48.973Z,65.53
2018-02-21T16:04:18.139Z,64.47
2018-02-21T16:06:47.307Z,60.70
2018-02-21T16:09:16.600Z,65.17
2018-02-21T16:11:45.795Z,69.57
2018-02-21T16:14:15.032Z,69.27
2018-02-21T16:16:44.243Z,67.68
2018-02-21T16:19:13.399Z,64.63
2018-02-21T16:21:42.566Z,68.75
2018-02-21T16:24:11.712Z,68.37
2018-02-21T16:29:16.107Z,70.40
2018-02-21T16:31:45.263Z,72.33
2018-02-21T16:34:14.399Z,73.10
2018-02-21T16:36:43.568Z,67.13
2018-02-21T16:39:12.698Z,72.65
2018-02-21T16:41:41.935Z,72.17
2018-02-21T16:44:11.103Z,70.68
2018-02-21T16:46:40.267Z,75.77
2018-02-21T16:49:09.906Z,67.80
2018-02-21T16:51:39.460Z,75.87
2018-02-21T16:56:46.395Z,70.53
2018-02-21T16:59:16.757Z,74.12
2018-02-21T17:01:45.928Z,76.65
2018-02-21T17:04:16.557Z,71.85
2018-02-21T17:06:45.778Z,61.67
2018-02-21T17:09:15.904Z,73.20
2018-02-21T17:11:45.140Z,67.53
2018-02-21T17:14:14.304Z,78.50
2018-02-21T17:16:46.065Z,71.80
2018-02-21T17:19:16.376Z,72.53
2018-02-21T17:21:45.694Z,83.83
2018-02-21T17:24:16.999Z,76.43
2018-02-21T17:26:46.197Z,75.40
2018-02-21T17:29:15.363Z,75.37
2018-02-21T17:31:44.527Z,72.93
2018-02-21T17:34:13.757Z,67.50
2018-02-21T17:36:42.971Z,77.25
2018-02-21T17:39:18.658Z,76.30
2018-02-21T17:41:47.833Z,75.30
2018-02-21T17:46:52.264Z,74.95
2018-02-21T17:49:21.414Z,77.40
2018-02-21T17:51:50.566Z,79.97
2018-02-21T17:54:19.772Z,138.25
2018-02-21T17:56:48.948Z,123.57
2018-02-21T17:59:18.150Z,95.60
2018-02-21T18:01:47.335Z,85.97
2018-02-21T18:04:16.512Z,82.22
2018-02-21T18:06:45.695Z,83.20
2018-02-21T18:09:14.863Z,77.43
2018-02-21T18:11:44.027Z,81.45
2018-02-21T18:14:13.224Z,71.37
2018-02-21T18:16:42.400Z,85.53
2018-02-21T18:19:11.589Z,93.37
2018-02-21T18:21:46.194Z,83.30
2018-02-21T18:24:15.402Z,84.10
2018-02-21T18:26:44.639Z,96.05
2018-02-21T18:29:13.807Z,97.32
2018-02-21T18:31:42.978Z,88.40
2018-02-21T18:34:12.149Z,90.82
2018-02-21T18:36:41.322Z,93.10
2018-02-21T18:41:45.756Z,90.10
2018-02-21T18:44:14.936Z,79.57
2018-02-21T18:46:44.164Z,89.13
2018-02-21T18:49:13.344Z,86.78
2018-02-21T18:51:42.594Z,74.90
2018-02-21T18:54:11.779Z,84.97
2018-02-21T18:59:16.217Z,94.53
2018-02-21T19:04:20.499Z,92.25
2018-02-21T19:06:49.714Z,77.73
2018-02-21T19:09:18.919Z,80.65
2018-02-21T19:11:48.064Z,86.18
2018-02-21T19:14:18.251Z,75.20
2018-02-21T19:16:47.419Z,93.93
2018-02-21T19:19:16.599Z,96.40
2018-02-21T19:21:45.760Z,95.87
2018-02-21T19:24:14.940Z,79.07
2018-02-21T19:26:44.103Z,88.12
2018-02-21T19:29:13.302Z,89.77
2018-02-21T19:31:42.460Z,86.87
2018-02-21T19:34:11.630Z,85.18
2018-02-21T19:36:40.796Z,86.70
2018-02-21T19:39:09.991Z,78.53
2018-02-21T19:41:39.295Z,81.80
2018-02-21T19:44:08.491Z,69.47
2018-02-21T19:46:37.730Z,79.70
2018-02-21T19:49:06.975Z,79.12
2018-02-21T19:51:36.144Z,72.67
2018-02-21T19:54:08.563Z,80.10
2018-02-21T19:56:37.728Z,76.30
2018-02-21T19:59:06.903Z,68.70
2018-02-21T20:01:36.999Z,74.30
2018-02-21T20:04:06.205Z,72.97
2018-02-21T20:06:35.371Z,63.93
2018-02-21T20:09:04.619Z,73.28
2018-02-21T20:11:33.770Z,73.53
2018-02-21T20:14:03.258Z,61.60
2018-02-21T20:16:32.156Z,65.97
2018-02-21T20:21:37.570Z,66.25
2018-02-21T20:26:51.864Z,65.25
2018-02-21T20:29:21.168Z,58.50
2018-02-21T20:31:50.362Z,61.10
2018-02-21T20:34:19.552Z,67.12
2018-02-21T20:36:48.708Z,64.20
2018-02-21T20:39:17.914Z,62.60
2018-02-21T20:41:47.208Z,63.75
2018-02-21T20:48:05.693Z,61.20
2018-02-21T20:50:34.895Z,70.12
2018-02-21T20:53:04.079Z,70.05
2018-02-21T20:55:33.230Z,64.23
2018-02-21T20:58:03.470Z,65.68
2018-02-21T21:00:32.654Z,69.55
2018-02-21T21:03:02.710Z,61.10
2018-02-21T21:05:32.098Z,63.90
2018-02-21T21:08:01.262Z,67.40
2018-02-21T21:10:30.420Z,61.07
2018-02-21T21:12:59.604Z,57.95
2018-02-21T21:15:28.767Z,64.05
2018-02-21T21:17:57.934Z,62.42
2018-02-21T21:20:27.105Z,58.17
2018-02-21T21:22:56.269Z,71.07
2018-02-21T21:25:25.471Z,64.47
2018-02-21T21:27:54.676Z,55.53
2018-02-21T21:30:23.870Z,69.25
2018-02-21T21:32:53.055Z,63.78
2018-02-21T21:35:22.191Z,68.50
2018-02-21T21:37:51.354Z,63.17
2018-02-21T21:40:20.506Z,64.93
2018-02-21T21:42:49.716Z,66.30
2018-02-21T21:47:54.142Z,69.30
2018-02-21T21:50:33.894Z,70.13
2018-02-21T21:53:03.056Z,70.95
2018-02-21T21:55:38.742Z,59.43
2018-02-21T22:00:49.894Z,69.97
2018-02-21T22:03:19.083Z,64.63
2018-02-21T22:05:48.284Z,71.75
2018-02-21T22:08:17.608Z,73.45
2018-02-21T22:10:46.751Z,67.83
2018-02-21T22:13:16.943Z,70.75
2018-02-21T22:15:46.098Z,67.18
2018-02-21T22:18:15.260Z,63.20
2018-02-21T22:20:44.447Z,66.57
2018-02-21T22:23:13.593Z,68.50
2018-02-21T22:25:42.758Z,73.60
2018-02-21T22:28:11.924Z,74.95
2018-02-21T22:30:41.080Z,76.82
2018-02-21T22:33:10.255Z,66.90
2018-02-21T22:35:39.481Z,86.43
2018-02-21T22:38:08.655Z,82.53
2018-02-21T22:40:37.827Z,75.70
2018-02-21T22:43:06.993Z,85.93
2018-02-21T22:45:36.152Z,86.53
2018-02-21T22:48:05.346Z,85.53
2018-02-21T22:50:34.513Z,73.23
2018-02-21T22:53:04.963Z,80.82
2018-02-21T22:55:34.209Z,84.00
2018-02-21T23:00:38.664Z,74.95
2018-02-21T23:03:07.856Z,62.50
2018-02-21T23:05:37.003Z,79.03
2018-02-21T23:08:07.119Z,69.50
2018-02-21T23:10:36.273Z,73.60
2018-02-21T23:13:05.510Z,76.20
2018-02-21T23:15:34.647Z,59.40
2018-02-21T23:18:03.895Z,71.87
2018-02-21T23:20:33.157Z,75.60
2018-02-21T23:23:02.670Z,69.97
2018-02-21T23:25:32.034Z,74.47
2018-02-21T23:28:01.213Z,74.47
2018-02-21T23:30:31.410Z,77.53
2018-02-21T23:33:46.894Z,75.73
2018-02-21T23:36:16.083Z,77.53
2018-02-21T23:38:45.280Z,77.47
2018-02-21T23:41:14.467Z,65.00
2018-02-21T23:43:43.717Z,79.50
2018-02-21T23:46:12.914Z,77.35
2018-02-21T23:48:42.119Z,76.22
2018-02-21T23:51:11.428Z,73.77
2018-02-21T23:53:40.588Z,79.62
2018-02-21T23:56:09.765Z,80.90
2018-02-21T23:58:38.982Z,78.95
